LDSB/BWK METAR and TAF weather

Enter ICAO airport designator
Station Type Date Time Source
LDSB METAR 2020/06/30 14:00 UTC NOAA

LDSB 301400Z 22008KT CAVOK 29/14 Q1015


Station Type Date Time Source
LDSB Decoded METAR 2020/06/30 14:00 UTC NOAA

Brac, Croatia (LDSB) 43-17-09N 016-40-47E
Jun 30, 2020 - 10:00 AM EDT / 2020.06.30 1400 UTC
Wind: from the SW (220 degrees) at 9 MPH (8 KT):0
Visibility: greater than 7 mile(s):0
Temperature: 84 F (29 C)
Dew Point: 57 F (14 C)
Relative Humidity: 39%
Pressure (altimeter): 29.97 in. Hg (1015 hPa)
ob: LDSB 301400Z 22008KT CAVOK 29/14 Q1015
cycle: 14

Station Type Date Time Source
LDSB TAF 2020/06/30 15:15 UTC NOAA

TAF
AMD LDSB 301511Z 3015/0112 CNL

Example: see airport list